Time;durP1;ratioP1;P1;durP2;ratioP2;P2;SDS_P1;SDS_P2;PMS_P1;PMS_P2;Temp;Humidity;BMP_temperature;BMP_pressure;BME280_temperature;BME280_humidity;BME280_pressure;Samples;Min_cycle;Max_cycle;Signal;HPM_P1;HPM_P2
2022/03/30 00:00:46;;;;;;;45.03;24.83;;;11.50;99.90;;;;;;6306937;22;20432;-74
2022/03/30 00:03:12;;;;;;;41.33;24.73;;;11.50;99.90;;;;;;6306974;22;19995;-74
2022/03/30 00:05:38;;;;;;;47.80;25.33;;;11.50;99.90;;;;;;6306923;22;20053;-74
2022/03/30 00:08:06;;;;;;;46.08;26.27;;;11.50;99.90;;;;;;6307426;22;20019;-74
2022/03/30 00:10:33;;;;;;;51.20;26.90;;;11.50;99.90;;;;;;6279698;22;20042;-74
2022/03/30 00:13:00;;;;;;;48.70;28.67;;;11.40;99.90;;;;;;6307027;22;20329;-73
2022/03/30 00:15:27;;;;;;;43.92;24.67;;;11.50;99.90;;;;;;6307233;22;20079;-74
2022/03/30 00:17:53;;;;;;;44.63;25.13;;;11.50;99.90;;;;;;6307341;22;20318;-73
2022/03/30 00:20:19;;;;;;;41.88;24.42;;;11.50;99.90;;;;;;6307030;22;19999;-74
2022/03/30 00:22:46;;;;;;;47.95;26.50;;;11.50;99.90;;;;;;6307040;22;19999;-74
2022/03/30 00:25:14;;;;;;;44.42;25.38;;;11.40;99.90;;;;;;6307462;22;19999;-73
2022/03/30 00:27:46;;;;;;;44.60;24.75;;;11.30;99.90;;;;;;6307368;22;20026;-73
2022/03/30 00:30:14;;;;;;;43.08;24.05;;;11.30;99.90;;;;;;6306635;22;20004;-74
2022/03/30 00:32:41;;;;;;;47.03;26.10;;;11.30;99.90;;;;;;6306318;22;20007;-74
2022/03/30 00:35:08;;;;;;;47.67;26.05;;;11.30;99.90;;;;;;6306569;22;19999;-73
2022/03/30 00:37:37;;;;;;;43.88;25.40;;;11.40;99.90;;;;;;6307253;22;19996;-74
2022/03/30 00:40:05;;;;;;;53.08;25.15;;;11.30;99.90;;;;;;6306829;22;19999;-73
2022/03/30 00:42:31;;;;;;;45.60;26.38;;;11.30;99.90;;;;;;6307205;22;20002;-73
2022/03/30 00:44:57;;;;;;;51.65;27.98;;;11.40;99.90;;;;;;6307165;22;20047;-73
2022/03/30 00:47:26;;;;;;;46.50;24.45;;;11.40;99.90;;;;;;6306743;22;20317;-74
2022/03/30 00:49:53;;;;;;;45.10;25.92;;;11.40;99.90;;;;;;6306795;22;20007;-74
2022/03/30 00:52:20;;;;;;;47.92;24.70;;;11.40;99.90;;;;;;6306984;22;20000;-73
2022/03/30 00:54:49;;;;;;;48.42;25.70;;;11.30;99.90;;;;;;6307039;22;20003;-74
2022/03/30 00:57:18;;;;;;;41.58;24.15;;;11.40;99.90;;;;;;6306873;22;20000;-73
2022/03/30 00:59:43;;;;;;;42.95;23.98;;;11.40;99.90;;;;;;6306942;22;20367;-73
2022/03/30 01:02:09;;;;;;;51.85;25.52;;;11.40;99.90;;;;;;6304487;22;20004;-73
2022/03/30 01:04:35;;;;;;;48.92;25.85;;;11.30;99.90;;;;;;6279254;22;20016;-73
2022/03/30 01:07:02;;;;;;;45.72;25.40;;;11.30;99.90;;;;;;6279292;22;20029;-73
2022/03/30 01:09:29;;;;;;;42.83;24.88;;;11.20;99.90;;;;;;6305097;22;19999;-74
2022/03/30 01:11:56;;;;;;;42.03;24.92;;;11.10;99.90;;;;;;6306129;22;19999;-73
2022/03/30 01:14:25;;;;;;;49.60;26.08;;;11.10;99.90;;;;;;6305219;22;20428;-73
2022/03/30 01:16:51;;;;;;;42.70;24.90;;;11.10;99.90;;;;;;6305745;22;20051;-73
2022/03/30 01:19:17;;;;;;;45.42;24.48;;;11.10;99.90;;;;;;6279552;22;20077;-73
2022/03/30 01:21:45;;;;;;;49.38;25.45;;;11.10;99.90;;;;;;6306810;22;20074;-73
2022/03/30 01:24:12;;;;;;;50.90;25.88;;;11.10;99.90;;;;;;6307154;22;20301;-73
2022/03/30 01:26:40;;;;;;;45.70;24.40;;;11.10;99.90;;;;;;6306606;22;20003;-73
2022/03/30 01:32:25;;;;;;;45.08;24.45;;;11.00;99.90;;;;;;6305367;22;20420;-73
2022/03/30 01:34:42;;;;;;;49.78;26.08;;;11.10;99.90;;;;;;6306762;22;20332;-73
2022/03/30 01:37:11;;;;;;;48.08;24.83;;;11.10;99.90;;;;;;6305485;22;20006;-73
2022/03/30 01:39:37;;;;;;;53.45;26.10;;;11.10;99.90;;;;;;6306882;22;20413;-73
2022/03/30 01:42:03;;;;;;;48.95;24.17;;;11.00;99.90;;;;;;6306486;22;20027;-73
2022/03/30 01:44:30;;;;;;;48.13;25.02;;;11.00;99.90;;;;;;6308246;22;20011;-73
2022/03/30 01:46:56;;;;;;;45.88;25.60;;;11.00;99.90;;;;;;6307163;22;20000;-73
2022/03/30 01:49:22;;;;;;;51.67;25.45;;;10.90;99.90;;;;;;6308801;22;20010;-73
2022/03/30 01:51:49;;;;;;;50.80;25.67;;;10.90;99.90;;;;;;6307071;22;20611;-73
2022/03/30 01:54:20;;;;;;;46.30;23.77;;;10.90;99.90;;;;;;6307492;22;19999;-73
2022/03/30 01:56:47;;;;;;;51.53;25.05;;;10.90;99.90;;;;;;6307912;22;20005;-73
2022/03/30 01:59:14;;;;;;;47.40;24.67;;;10.90;99.90;;;;;;6307290;22;20049;-73
2022/03/30 02:01:40;;;;;;;43.10;23.80;;;10.80;99.90;;;;;;6280600;22;20090;-76
2022/03/30 02:04:07;;;;;;;43.88;25.92;;;10.80;99.90;;;;;;6281155;22;20033;-73
2022/03/30 02:06:37;;;;;;;48.97;25.15;;;10.80;99.90;;;;;;6306934;22;20306;-73
2022/03/30 02:09:04;;;;;;;45.55;23.92;;;10.80;99.90;;;;;;6308340;22;20007;-73
2022/03/30 02:11:30;;;;;;;49.63;25.08;;;10.70;99.90;;;;;;6308207;22;20010;-76
2022/03/30 02:13:57;;;;;;;50.10;25.50;;;10.60;99.90;;;;;;6307132;22;20004;-75
2022/03/30 02:16:24;;;;;;;47.00;22.85;;;10.50;99.90;;;;;;6308176;22;19999;-75
2022/03/30 02:18:50;;;;;;;45.20;24.08;;;10.50;99.90;;;;;;6307837;22;20425;-74
2022/03/30 02:21:16;;;;;;;48.78;24.25;;;10.50;99.90;;;;;;6308190;22;20471;-75
2022/03/30 02:23:45;;;;;;;46.08;23.45;;;10.50;99.90;;;;;;6281065;22;20010;-75
2022/03/30 02:26:12;;;;;;;47.58;24.33;;;10.50;99.90;;;;;;6306435;22;20028;-75
2022/03/30 02:28:39;;;;;;;49.03;24.83;;;10.20;99.90;;;;;;6307737;22;20518;-75
2022/03/30 02:31:05;;;;;;;43.67;24.85;;;10.20;99.90;;;;;;6306643;22;20486;-75
2022/03/30 02:33:31;;;;;;;47.42;24.70;;;10.20;99.90;;;;;;6308061;22;19999;-75
2022/03/30 02:35:57;;;;;;;48.03;26.05;;;10.20;99.90;;;;;;6307100;22;20010;-75
2022/03/30 02:38:23;;;;;;;52.55;24.95;;;10.20;99.90;;;;;;6307252;22;19999;-75
2022/03/30 02:40:49;;;;;;;48.53;25.63;;;10.20;99.90;;;;;;6306635;22;20023;-75
2022/03/30 02:43:17;;;;;;;51.25;25.33;;;10.20;99.90;;;;;;6306425;22;20026;-74
2022/03/30 02:45:43;;;;;;;47.08;24.17;;;10.20;99.90;;;;;;6308076;22;20467;-74
2022/03/30 02:48:18;;;;;;;49.75;23.67;;;10.20;99.90;;;;;;6306207;22;20422;-74
2022/03/30 02:50:45;;;;;;;53.38;25.30;;;10.10;99.90;;;;;;6307787;22;20026;-74
2022/03/30 02:53:11;;;;;;;48.10;24.90;;;10.00;99.90;;;;;;6305939;22;20017;-74
2022/03/30 02:55:37;;;;;;;47.17;25.15;;;9.90;99.90;;;;;;6308043;22;20010;-73
2022/03/30 02:58:04;;;;;;;46.58;24.63;;;9.80;99.90;;;;;;6306007;22;20003;-74
2022/03/30 03:00:30;;;;;;;46.20;24.95;;;9.70;99.90;;;;;;6307849;22;20397;-74
2022/03/30 03:02:56;;;;;;;47.53;24.27;;;9.60;99.90;;;;;;6305925;22;20422;-74
2022/03/30 03:05:22;;;;;;;52.45;25.42;;;9.80;99.90;;;;;;6307879;22;20042;-74
2022/03/30 03:07:48;;;;;;;47.50;23.08;;;9.90;99.90;;;;;;6279913;22;20132;-74
2022/03/30 03:10:14;;;;;;;47.38;25.35;;;9.80;99.90;;;;;;6306298;22;20007;-75
2022/03/30 03:12:39;;;;;;;49.13;24.67;;;9.70;99.90;;;;;;6306850;22;20061;-75
2022/03/30 03:15:06;;;;;;;48.03;23.90;;;9.70;99.90;;;;;;6305296;22;20008;-75
2022/03/30 03:17:32;;;;;;;48.88;23.75;;;9.70;99.90;;;;;;6307938;22;20029;-75
2022/03/30 03:19:57;;;;;;;44.38;23.13;;;9.70;99.90;;;;;;6307650;22;20003;-75
2022/03/30 03:22:23;;;;;;;49.05;25.45;;;9.80;99.90;;;;;;6307801;22;20003;-75
2022/03/30 03:24:49;;;;;;;46.97;24.13;;;9.80;99.90;;;;;;6307705;22;20408;-75
2022/03/30 03:27:14;;;;;;;56.08;26.45;;;9.80;99.90;;;;;;6306152;22;20003;-75
2022/03/30 03:29:40;;;;;;;50.65;24.83;;;9.80;99.90;;;;;;6307006;22;20003;-75
2022/03/30 03:32:06;;;;;;;52.50;24.45;;;9.80;99.90;;;;;;6306703;22;20458;-75
2022/03/30 03:34:32;;;;;;;44.05;23.70;;;9.80;99.90;;;;;;6306453;22;20011;-75
2022/03/30 03:36:58;;;;;;;43.97;24.05;;;9.90;99.90;;;;;;6280336;22;20329;-75
2022/03/30 03:39:24;;;;;;;51.53;23.90;;;9.90;99.90;;;;;;6279077;22;19995;-75
2022/03/30 03:41:49;;;;;;;42.10;22.67;;;9.90;99.90;;;;;;6307027;22;20494;-74
2022/03/30 03:44:15;;;;;;;45.10;23.48;;;10.00;99.90;;;;;;6278328;22;20065;-75
2022/03/30 03:46:40;;;;;;;49.30;23.88;;;10.00;99.90;;;;;;6307635;22;19999;-74
2022/03/30 03:49:08;;;;;;;49.40;25.33;;;10.00;99.90;;;;;;6278778;22;20005;-75
2022/03/30 03:51:34;;;;;;;49.85;24.13;;;10.00;99.90;;;;;;6306931;22;20493;-75
2022/03/30 03:53:59;;;;;;;46.95;24.17;;;10.00;99.90;;;;;;6307394;22;20003;-75
2022/03/30 03:56:25;;;;;;;53.17;24.30;;;10.00;99.90;;;;;;6307262;22;20460;-75
2022/03/30 03:58:52;;;;;;;50.60;23.83;;;10.00;99.90;;;;;;6307457;22;20000;-75
2022/03/30 04:01:17;;;;;;;51.83;24.98;;;9.90;99.90;;;;;;6280025;22;20014;-75
2022/03/30 04:03:43;;;;;;;48.28;23.13;;;10.00;99.90;;;;;;6307113;22;20004;-75
2022/03/30 04:06:09;;;;;;;45.13;23.40;;;9.90;99.90;;;;;;6280104;22;20329;-75
2022/03/30 04:08:36;;;;;;;51.53;24.45;;;10.00;99.90;;;;;;6305835;22;20340;-75
2022/03/30 04:11:02;;;;;;;54.67;25.00;;;9.90;99.90;;;;;;6306776;22;20387;-75
2022/03/30 04:13:27;;;;;;;51.85;24.00;;;9.80;99.90;;;;;;6305477;22;20003;-74
2022/03/30 04:15:53;;;;;;;47.45;24.77;;;9.80;99.90;;;;;;6307159;22;20030;-74
2022/03/30 04:18:19;;;;;;;46.70;23.55;;;9.80;99.90;;;;;;6280296;22;20048;-74
2022/03/30 04:20:45;;;;;;;48.75;24.27;;;9.80;99.90;;;;;;6305751;22;20645;-74
2022/03/30 04:23:11;;;;;;;47.60;23.13;;;9.80;99.90;;;;;;6306927;22;20027;-75
2022/03/30 04:25:37;;;;;;;47.67;23.77;;;9.70;99.90;;;;;;6279457;22;20003;-74
2022/03/30 04:28:03;;;;;;;49.17;23.08;;;9.70;99.90;;;;;;6307232;22;20057;-74
2022/03/30 04:30:29;;;;;;;46.95;22.67;;;9.70;99.90;;;;;;6278074;22;20336;-75
2022/03/30 04:32:54;;;;;;;43.72;23.55;;;9.70;99.90;;;;;;6307097;22;20078;-75
2022/03/30 04:35:25;;;;;;;46.75;24.77;;;9.60;99.90;;;;;;6306858;22;19999;-75
2022/03/30 04:37:55;;;;;;;52.28;24.23;;;9.60;99.90;;;;;;6279578;22;20006;-75
2022/03/30 04:40:22;;;;;;;50.03;24.58;;;9.60;99.90;;;;;;6305668;22;20459;-74
2022/03/30 04:42:49;;;;;;;54.25;26.02;;;9.40;99.90;;;;;;6306006;22;20325;-74
2022/03/30 04:45:16;;;;;;;54.50;24.00;;;9.40;99.90;;;;;;6306731;22;20473;-75
2022/03/30 04:47:42;;;;;;;48.30;24.27;;;9.40;99.90;;;;;;6307113;22;20007;-74
2022/03/30 04:50:09;;;;;;;49.50;24.27;;;9.30;99.90;;;;;;6279788;22;20007;-74
2022/03/30 04:52:36;;;;;;;51.05;24.50;;;9.20;99.90;;;;;;6277671;22;20384;-74
2022/03/30 04:55:02;;;;;;;49.13;22.98;;;9.30;99.90;;;;;;6307145;22;20417;-74
2022/03/30 04:57:27;;;;;;;47.10;23.52;;;9.40;99.90;;;;;;6305627;22;20062;-74
2022/03/30 04:59:53;;;;;;;47.05;23.45;;;9.40;99.90;;;;;;6306721;22;19999;-74
2022/03/30 05:02:19;;;;;;;49.67;23.40;;;9.40;99.90;;;;;;6306607;22;20009;-75
2022/03/30 05:04:44;;;;;;;56.72;23.58;;;9.40;99.90;;;;;;6306505;22;20048;-75
2022/03/30 05:07:10;;;;;;;47.63;24.33;;;9.40;99.90;;;;;;6279058;22;20391;-75
2022/03/30 05:09:36;;;;;;;47.60;22.90;;;9.40;99.90;;;;;;6304994;22;20079;-75
2022/03/30 05:12:02;;;;;;;53.25;23.70;;;9.40;99.90;;;;;;6306232;22;20041;-75
2022/03/30 05:14:28;;;;;;;52.90;22.92;;;9.40;99.90;;;;;;6279452;22;20007;-74
2022/03/30 05:16:54;;;;;;;45.55;23.40;;;9.30;99.90;;;;;;6307185;22;20023;-75
2022/03/30 05:19:20;;;;;;;50.10;24.10;;;9.20;99.90;;;;;;6281106;22;20021;-75
2022/03/30 05:21:46;;;;;;;50.83;24.83;;;9.20;99.90;;;;;;6308239;22;20350;-75
2022/03/30 05:24:12;;;;;;;48.55;24.08;;;9.20;99.90;;;;;;6307251;22;20408;-75
2022/03/30 05:26:38;;;;;;;41.00;22.25;;;9.10;99.90;;;;;;6308671;22;20003;-74
2022/03/30 05:29:03;;;;;;;46.63;23.25;;;9.20;99.90;;;;;;6308749;22;20008;-75
2022/03/30 05:31:29;;;;;;;53.17;25.30;;;9.20;99.90;;;;;;6307703;22;20688;-75
2022/03/30 05:33:56;;;;;;;53.10;23.98;;;9.10;99.90;;;;;;6307901;22;20011;-75
2022/03/30 05:36:21;;;;;;;47.30;23.45;;;9.10;99.90;;;;;;6281022;22;20000;-75
2022/03/30 05:38:48;;;;;;;52.08;24.85;;;9.10;99.90;;;;;;6308691;22;20003;-75
2022/03/30 05:41:14;;;;;;;54.00;24.17;;;9.00;99.90;;;;;;6308363;22;20006;-75
2022/03/30 05:43:39;;;;;;;48.38;22.85;;;9.00;99.90;;;;;;6308857;22;20003;-75
2022/03/30 05:46:06;;;;;;;44.08;23.67;;;9.00;99.90;;;;;;6308837;22;20413;-75
2022/03/30 05:48:31;;;;;;;49.83;23.65;;;8.90;99.90;;;;;;6308435;22;20003;-75
2022/03/30 05:50:58;;;;;;;53.15;23.52;;;8.90;99.90;;;;;;6279916;22;20697;-75
2022/03/30 05:53:25;;;;;;;53.50;24.98;;;8.90;99.90;;;;;;6280476;22;20045;-74
2022/03/30 05:55:51;;;;;;;50.80;22.88;;;9.00;99.90;;;;;;6308012;22;20486;-75
2022/03/30 05:58:17;;;;;;;53.10;25.00;;;8.90;99.90;;;;;;6307608;22;19999;-75
2022/03/30 06:00:43;;;;;;;45.83;22.95;;;8.90;99.90;;;;;;6280722;22;20417;-75
2022/03/30 06:03:12;;;;;;;52.08;25.33;;;8.90;99.90;;;;;;6306614;22;20031;-74
2022/03/30 06:05:38;;;;;;;49.45;23.75;;;8.90;99.90;;;;;;6307772;22;20073;-74
2022/03/30 06:08:06;;;;;;;47.17;23.65;;;8.90;99.90;;;;;;6308359;22;20003;-74
2022/03/30 06:10:32;;;;;;;48.63;25.55;;;8.90;99.90;;;;;;6308189;22;19999;-75
2022/03/30 06:12:58;;;;;;;55.20;24.83;;;9.00;99.90;;;;;;6306609;22;20011;-74
2022/03/30 06:15:24;;;;;;;55.72;25.05;;;9.00;99.90;;;;;;6308343;22;20003;-75
2022/03/30 06:17:51;;;;;;;51.05;24.40;;;9.10;99.90;;;;;;6280721;22;20025;-75
2022/03/30 06:20:17;;;;;;;49.20;23.02;;;9.00;99.90;;;;;;6280843;22;20038;-74
2022/03/30 06:22:44;;;;;;;46.20;24.55;;;8.90;99.90;;;;;;6306160;22;20037;-75
2022/03/30 06:25:11;;;;;;;53.97;24.85;;;8.90;99.90;;;;;;6307810;22;19999;-74
2022/03/30 06:27:38;;;;;;;57.80;24.85;;;8.90;99.90;;;;;;6305503;22;20006;-74
2022/03/30 06:30:05;;;;;;;50.35;24.27;;;9.00;99.90;;;;;;6306810;22;20409;-74
2022/03/30 06:32:31;;;;;;;58.58;25.10;;;9.00;99.90;;;;;;6306018;22;20014;-74
2022/03/30 06:34:57;;;;;;;52.75;23.98;;;9.10;99.90;;;;;;6307106;22;20558;-75
2022/03/30 06:37:23;;;;;;;47.60;24.35;;;9.10;99.90;;;;;;6306568;22;20456;-74
2022/03/30 06:39:49;;;;;;;52.47;24.92;;;9.20;99.90;;;;;;6307449;22;20019;-74
2022/03/30 06:42:16;;;;;;;54.42;24.35;;;9.20;99.90;;;;;;6306650;22;20003;-74
2022/03/30 06:44:43;;;;;;;56.17;27.13;;;9.00;99.90;;;;;;6307820;22;20014;-74
2022/03/30 06:47:09;;;;;;;46.05;24.38;;;9.00;99.90;;;;;;6307471;22;20026;-74
2022/03/30 06:49:37;;;;;;;52.58;26.42;;;9.00;99.90;;;;;;6306613;22;20006;-74
2022/03/30 06:52:05;;;;;;;51.38;23.60;;;9.00;99.90;;;;;;6308095;22;20436;-74
2022/03/30 06:54:31;;;;;;;61.47;26.42;;;9.10;99.90;;;;;;6305784;22;20003;-75
2022/03/30 06:56:59;;;;;;;53.80;26.50;;;9.10;99.90;;;;;;6308079;22;20041;-74
2022/03/30 06:59:25;;;;;;;56.00;25.50;;;9.10;99.90;;;;;;6307649;22;19999;-74
2022/03/30 07:01:51;;;;;;;55.10;25.02;;;9.20;99.90;;;;;;6304664;22;20010;-74
2022/03/30 07:04:17;;;;;;;57.28;26.27;;;9.30;99.90;;;;;;6306125;22;20023;-75
2022/03/30 07:12:12;;;;;;;51.60;23.52;;;9.50;99.90;;;;;;6306661;22;20173;-75
2022/03/30 07:14:38;;;;;;;43.88;22.30;;;9.60;99.90;;;;;;6307603;22;20027;-75
2022/03/30 07:17:04;;;;;;;47.28;24.88;;;9.40;99.90;;;;;;6307564;22;20091;-75
2022/03/30 07:19:30;;;;;;;54.45;21.80;;;9.50;99.90;;;;;;6305989;22;20416;-75
2022/03/30 07:21:56;;;;;;;45.42;22.77;;;9.60;99.90;;;;;;6279975;22;20416;-75
2022/03/30 07:24:21;;;;;;;44.35;22.67;;;9.50;99.90;;;;;;6306633;22;20033;-75
2022/03/30 07:26:47;;;;;;;47.17;22.02;;;9.40;99.90;;;;;;6307110;22;20460;-75
2022/03/30 07:29:13;;;;;;;46.80;22.25;;;9.60;99.90;;;;;;6307234;22;20027;-75
2022/03/30 07:31:38;;;;;;;39.42;19.95;;;9.70;99.90;;;;;;6307241;22;20003;-75
2022/03/30 07:34:04;;;;;;;39.97;19.13;;;9.70;99.90;;;;;;6307168;22;20481;-75
2022/03/30 07:36:30;;;;;;;41.88;20.80;;;9.50;99.90;;;;;;6307745;22;20000;-75
2022/03/30 07:38:56;;;;;;;45.08;20.75;;;9.50;99.90;;;;;;6307811;22;20000;-75
2022/03/30 07:41:22;;;;;;;44.40;20.10;;;9.60;99.90;;;;;;6307304;22;20008;-75
2022/03/30 07:43:48;;;;;;;40.90;19.73;;;9.50;99.90;;;;;;6307397;22;20064;-74
2022/03/30 07:46:14;;;;;;;43.75;20.55;;;9.60;99.90;;;;;;6307675;22;20078;-75
2022/03/30 07:48:41;;;;;;;42.53;20.23;;;9.70;99.90;;;;;;6305331;22;20465;-75
2022/03/30 07:51:06;;;;;;;40.08;19.88;;;9.70;99.90;;;;;;6306842;22;20002;-74
2022/03/30 07:53:32;;;;;;;38.78;20.10;;;9.80;99.90;;;;;;6305678;22;20003;-74
2022/03/30 07:55:58;;;;;;;41.58;21.23;;;9.70;99.90;;;;;;6279420;22;20078;-74
2022/03/30 07:58:25;;;;;;;39.85;18.92;;;9.60;99.90;;;;;;6306404;22;20010;-74
2022/03/30 08:00:52;;;;;;;36.13;19.25;;;9.50;99.90;;;;;;6305859;22;20026;-74
2022/03/30 08:03:17;;;;;;;44.55;18.17;;;9.50;99.90;;;;;;6306420;22;20031;-74
2022/03/30 08:05:43;;;;;;;37.78;20.48;;;9.60;99.90;;;;;;6305689;22;19999;-74
2022/03/30 08:08:09;;;;;;;40.92;20.27;;;9.70;99.90;;;;;;6307050;22;20003;-74
2022/03/30 08:10:37;;;;;;;42.58;20.27;;;9.90;99.90;;;;;;6305143;22;20007;-74
2022/03/30 08:13:03;;;;;;;44.35;18.70;;;10.00;99.90;;;;;;6307668;22;20014;-74
2022/03/30 08:15:31;;;;;;;41.42;19.65;;;10.10;99.90;;;;;;6306311;22;20010;-74
2022/03/30 08:17:57;;;;;;;42.20;19.67;;;10.30;99.90;;;;;;6306861;22;19991;-75
2022/03/30 08:23:08;;;;;;;36.65;19.75;;;10.40;99.90;;;;;;6306803;22;20014;-74
2022/03/30 08:25:35;;;;;;;39.08;19.63;;;10.70;99.90;;;;;;6279952;22;20010;-74
2022/03/30 08:28:02;;;;;;;42.50;19.23;;;10.90;99.90;;;;;;6305071;22;20435;-74
2022/03/30 08:30:28;;;;;;;34.60;19.33;;;11.10;99.90;;;;;;6306314;22;20010;-74
2022/03/30 08:32:55;;;;;;;34.65;18.35;;;11.10;99.90;;;;;;6306879;22;20019;-74
2022/03/30 08:35:22;;;;;;;34.25;17.55;;;11.00;99.90;;;;;;6306289;22;20056;-74
2022/03/30 08:37:48;;;;;;;34.35;18.02;;;11.00;99.90;;;;;;6307131;22;19999;-74
2022/03/30 08:40:14;;;;;;;31.50;16.98;;;11.10;99.90;;;;;;6306997;22;20079;-75
2022/03/30 08:42:41;;;;;;;33.88;17.42;;;11.40;99.90;;;;;;6305510;22;20030;-75
2022/03/30 08:45:09;;;;;;;32.13;16.92;;;11.30;99.90;;;;;;6279154;22;20098;-74
2022/03/30 08:47:35;;;;;;;32.75;17.00;;;11.30;99.90;;;;;;6306495;22;20003;-75
2022/03/30 08:50:03;;;;;;;32.63;18.58;;;11.50;99.90;;;;;;6279801;22;20007;-74
2022/03/30 08:52:29;;;;;;;35.80;18.15;;;11.60;99.90;;;;;;6307106;22;19999;-74
2022/03/30 08:54:57;;;;;;;29.95;15.27;;;11.50;99.90;;;;;;6308447;22;20011;-74
2022/03/30 08:57:23;;;;;;;29.88;17.00;;;11.60;99.90;;;;;;6309443;22;20006;-74
2022/03/30 09:00:13;;;;;;;25.83;15.15;;;11.50;99.90;;;;;;6308687;22;20075;-74
2022/03/30 09:02:45;;;;;;;24.90;15.35;;;11.50;99.90;;;;;;6308742;22;20014;-75
2022/03/30 09:05:19;;;;;;;27.23;15.50;;;11.60;99.90;;;;;;6306760;22;20030;-74
2022/03/30 09:07:49;;;;;;;31.42;15.63;;;11.70;99.90;;;;;;6308837;22;20325;-74
2022/03/30 09:10:18;;;;;;;28.85;15.30;;;11.90;99.90;;;;;;6308550;22;20027;-74
2022/03/30 09:12:45;;;;;;;25.55;15.85;;;12.10;99.90;;;;;;6281519;22;20011;-74
2022/03/30 09:15:12;;;;;;;30.67;15.63;;;12.40;99.90;;;;;;6308527;22;20129;-74
2022/03/30 09:17:39;;;;;;;27.85;16.27;;;12.50;99.90;;;;;;6309008;22;20412;-74
2022/03/30 09:20:23;;;;;;;27.02;15.48;;;12.60;99.90;;;;;;6306851;22;20484;-74
2022/03/30 09:22:52;;;;;;;22.30;14.57;;;12.80;99.90;;;;;;6281234;22;20456;-75
2022/03/30 09:25:18;;;;;;;28.42;16.90;;;12.70;99.90;;;;;;6307111;22;20007;-75
2022/03/30 09:27:46;;;;;;;29.00;14.93;;;12.80;99.90;;;;;;6308541;22;20030;-74
2022/03/30 09:30:16;;;;;;;30.92;15.95;;;12.80;99.90;;;;;;6308227;22;19999;-75
2022/03/30 09:32:45;;;;;;;28.88;15.65;;;12.80;99.90;;;;;;6306571;22;20003;-75
2022/03/30 09:35:24;;;;;;;30.05;15.82;;;13.00;99.90;;;;;;6308241;22;20484;-75
2022/03/30 09:38:18;;;;;;;28.38;16.50;;;13.10;99.90;;;;;;6279769;22;20003;-75
2022/03/30 09:40:48;;;;;;;27.10;16.08;;;13.20;99.90;;;;;;6308641;22;20022;-75
2022/03/30 09:43:28;;;;;;;32.95;16.90;;;13.10;99.80;;;;;;6306587;22;20129;-75
2022/03/30 09:46:05;;;;;;;28.98;15.60;;;13.20;99.80;;;;;;6309096;22;20451;-74
2022/03/30 09:48:37;;;;;;;27.15;17.25;;;13.30;99.90;;;;;;6308753;22;20044;-75
2022/03/30 09:51:05;;;;;;;21.33;13.90;;;13.60;99.70;;;;;;6306858;22;20011;-74
2022/03/30 09:53:31;;;;;;;28.88;16.13;;;13.40;99.00;;;;;;6307732;22;20023;-74
2022/03/30 09:55:58;;;;;;;30.73;15.23;;;13.50;99.40;;;;;;6280568;22;20314;-75
2022/03/30 09:58:25;;;;;;;28.70;16.08;;;13.50;98.90;;;;;;6307080;22;20052;-74
2022/03/30 10:01:11;;;;;;;24.98;16.35;;;13.50;98.70;;;;;;6308131;22;20041;-74
2022/03/30 10:03:43;;;;;;;27.67;15.13;;;13.80;98.50;;;;;;6307146;22;19996;-74
2022/03/30 10:06:11;;;;;;;29.25;16.45;;;13.70;98.60;;;;;;6308102;22;20004;-75
2022/03/30 10:08:42;;;;;;;32.10;16.33;;;14.10;99.80;;;;;;6308260;22;19992;-74
2022/03/30 10:11:10;;;;;;;29.02;16.77;;;14.40;98.80;;;;;;6307205;22;19999;-75
2022/03/30 10:13:37;;;;;;;26.38;16.17;;;14.50;98.40;;;;;;6280330;22;20026;-74
2022/03/30 10:16:06;;;;;;;28.85;15.80;;;14.30;97.80;;;;;;6279542;22;20003;-74
2022/03/30 10:18:32;;;;;;;31.63;15.95;;;14.40;98.00;;;;;;6307693;22;20077;-75
2022/03/30 10:21:26;;;;;;;30.08;15.70;;;14.40;97.90;;;;;;6306845;22;20014;-74
2022/03/30 10:24:16;;;;;;;28.15;16.13;;;14.50;98.00;;;;;;6298815;22;20106;-74
2022/03/30 10:26:57;;;;;;;27.23;16.17;;;14.50;98.10;;;;;;6306332;22;20069;-75
2022/03/30 10:29:25;;;;;;;24.27;15.65;;;14.40;97.60;;;;;;6307861;22;20048;-75
2022/03/30 10:32:21;;;;;;;27.98;16.05;;;13.90;98.10;;;;;;6280184;22;20082;-74
2022/03/30 10:35:13;;;;;;;25.55;16.30;;;13.90;97.80;;;;;;6307230;22;20005;-74
2022/03/30 10:37:41;;;;;;;25.60;16.52;;;13.90;97.70;;;;;;6295424;22;20010;-74
2022/03/30 10:40:19;;;;;;;26.75;15.68;;;14.20;97.80;;;;;;6307754;22;20046;-75
2022/03/30 10:42:47;;;;;;;24.08;14.68;;;14.40;97.90;;;;;;6307835;22;20057;-75
2022/03/30 10:45:33;;;;;;;26.17;15.85;;;14.30;97.40;;;;;;6306796;22;20033;-75
2022/03/30 10:48:20;;;;;;;29.83;16.02;;;14.60;97.10;;;;;;6307167;22;20010;-74
2022/03/30 10:51:07;;;;;;;27.80;16.13;;;14.60;97.40;;;;;;6306251;22;20000;-74
2022/03/30 10:53:34;;;;;;;29.30;16.50;;;14.40;97.10;;;;;;6279010;22;20392;-74
2022/03/30 10:56:08;;;;;;;33.15;17.00;;;14.40;97.40;;;;;;6278790;22;20035;-74
2022/03/30 10:59:01;;;;;;;27.48;15.30;;;14.30;97.60;;;;;;6279358;22;20489;-74
2022/03/30 11:01:35;;;;;;;27.63;16.17;;;14.40;96.60;;;;;;6296203;22;20017;-74
2022/03/30 11:04:18;;;;;;;28.35;16.40;;;14.60;97.30;;;;;;6280049;22;20013;-74
2022/03/30 11:07:13;;;;;;;29.80;15.35;;;14.90;96.40;;;;;;6277739;22;20038;-74
2022/03/30 11:09:40;;;;;;;28.92;16.13;;;14.80;96.40;;;;;;6271737;22;20010;-74
2022/03/30 11:12:13;;;;;;;26.10;15.57;;;14.80;96.10;;;;;;6307249;22;20003;-74
2022/03/30 11:14:58;;;;;;;29.25;16.60;;;15.00;96.20;;;;;;6306645;22;20011;-74
2022/03/30 11:17:33;;;;;;;28.27;17.88;;;15.20;96.80;;;;;;6307697;22;20007;-74
2022/03/30 11:19:58;;;;;;;26.90;14.68;;;15.10;96.50;;;;;;6278027;22;20027;-74
2022/03/30 11:22:33;;;;;;;26.13;17.25;;;15.00;96.90;;;;;;6307479;22;20049;-74
2022/03/30 11:25:23;;;;;;;28.38;17.15;;;15.00;95.70;;;;;;6306711;22;20310;-75
2022/03/30 11:27:58;;;;;;;27.85;15.57;;;15.10;96.60;;;;;;6307311;22;19999;-74
2022/03/30 11:30:27;;;;;;;24.70;15.52;;;15.40;95.60;;;;;;6305990;22;20003;-74
2022/03/30 11:32:54;;;;;;;29.35;16.80;;;15.40;95.10;;;;;;6307317;22;20006;-74
2022/03/30 11:35:24;;;;;;;29.35;16.83;;;15.60;96.20;;;;;;6305754;22;19999;-75
2022/03/30 11:38:03;;;;;;;26.67;15.25;;;15.40;95.20;;;;;;6306540;22;20446;-74
2022/03/30 11:40:29;;;;;;;27.48;17.33;;;15.50;95.80;;;;;;6306953;22;20025;-75
2022/03/30 11:42:56;;;;;;;28.13;16.73;;;15.50;95.80;;;;;;6280602;22;20011;-74
2022/03/30 11:45:25;;;;;;;28.08;17.20;;;15.40;95.40;;;;;;6306023;22;20010;-74
2022/03/30 11:47:52;;;;;;;30.35;17.02;;;15.40;95.40;;;;;;6307034;22;20019;-75
2022/03/30 11:50:53;;;;;;;30.25;18.30;;;15.50;95.90;;;;;;6305629;22;20003;-74
2022/03/30 11:53:22;;;;;;;28.33;17.02;;;15.90;96.10;;;;;;6273720;22;20098;-75
2022/03/30 11:55:49;;;;;;;27.90;16.63;;;16.20;95.70;;;;;;6305426;22;20483;-75
2022/03/30 11:58:28;;;;;;;27.67;17.35;;;16.30;95.40;;;;;;6279906;22;20022;-75
2022/03/30 12:00:56;;;;;;;26.27;16.58;;;16.40;94.80;;;;;;6279647;22;20031;-75
2022/03/30 12:03:23;;;;;;;28.42;17.23;;;16.50;94.40;;;;;;6279485;22;20421;-75
2022/03/30 12:05:56;;;;;;;27.67;16.40;;;16.60;94.40;;;;;;6305192;22;20011;-75
2022/03/30 12:08:23;;;;;;;29.13;17.45;;;16.60;93.70;;;;;;6306720;22;19999;-75
2022/03/30 12:10:50;;;;;;;31.75;18.90;;;16.20;93.80;;;;;;6305151;22;20146;-75
2022/03/30 12:13:23;;;;;;;28.00;17.25;;;15.90;94.40;;;;;;6307199;22;20010;-75
2022/03/30 12:16:15;;;;;;;29.15;17.48;;;16.00;95.00;;;;;;6305046;22;20644;-75
2022/03/30 12:18:50;;;;;;;28.25;17.55;;;16.20;94.40;;;;;;6302368;22;20003;-75
2022/03/30 12:21:20;;;;;;;21.65;16.13;;;16.40;94.20;;;;;;6305521;22;19995;-73
2022/03/30 12:23:57;;;;;;;26.40;16.92;;;16.40;93.60;;;;;;6307003;22;19995;-75
2022/03/30 12:26:24;;;;;;;27.27;17.13;;;16.30;94.60;;;;;;6306754;22;20049;-75
2022/03/30 12:28:49;;;;;;;31.70;18.55;;;16.40;93.60;;;;;;6303799;22;20010;-75
2022/03/30 12:31:16;;;;;;;25.77;16.38;;;16.30;94.40;;;;;;6305425;22;20416;-75
2022/03/30 12:33:47;;;;;;;29.30;16.10;;;16.50;94.50;;;;;;6306324;22;19999;-75
2022/03/30 12:36:18;;;;;;;28.05;16.75;;;16.30;93.50;;;;;;6302539;22;20064;-74
2022/03/30 12:38:45;;;;;;;29.38;16.58;;;16.20;92.90;;;;;;6304695;22;20045;-75
2022/03/30 12:41:11;;;;;;;28.52;15.57;;;16.00;93.70;;;;;;6306302;22;20010;-75
2022/03/30 12:43:39;;;;;;;25.73;15.80;;;16.10;93.90;;;;;;6279315;22;20003;-74
2022/03/30 12:46:14;;;;;;;27.77;16.05;;;16.30;93.20;;;;;;6304766;22;19999;-75
2022/03/30 12:48:41;;;;;;;25.50;14.68;;;16.10;92.90;;;;;;6305838;22;20417;-75